createdAt,value
2022-11-16T00:46:45.360Z,32.55
2022-11-16T00:49:30.925Z,31.97
2022-11-16T00:52:16.367Z,31.00
2022-11-16T00:55:02.156Z,32.22
2022-11-16T00:57:47.651Z,29.98
2022-11-16T01:47:55.741Z,28.85
2022-11-16T01:50:46.046Z,27.13
2022-11-16T01:53:31.472Z,26.38
2022-11-16T01:56:17.047Z,26.42
2022-11-16T01:59:17.950Z,26.70
2022-11-16T02:46:35.249Z,24.75
2022-11-16T02:49:25.010Z,23.60
2022-11-16T02:52:11.254Z,23.60
2022-11-16T02:54:56.813Z,24.45
2022-11-16T02:57:42.118Z,23.45
2022-11-16T03:47:47.894Z,21.60
2022-11-16T03:50:33.740Z,22.35
2022-11-16T03:53:20.320Z,21.03
2022-11-16T03:56:05.649Z,21.00
2022-11-16T03:58:50.999Z,20.67
2022-11-16T04:46:16.118Z,19.58
2022-11-16T04:49:01.721Z,18.65
2022-11-16T04:51:47.031Z,18.67
2022-11-16T04:54:32.366Z,18.57
2022-11-16T04:57:17.311Z,19.27
2022-11-16T05:00:04.472Z,18.17
2022-11-16T05:31:23.361Z,17.80
2022-11-16T05:34:09.464Z,17.77
2022-11-16T05:36:54.868Z,17.30
2022-11-16T05:39:40.613Z,16.67
2022-11-16T05:42:26.125Z,16.92
2022-11-16T05:45:14.004Z,17.30
2022-11-16T05:48:02.351Z,16.85
2022-11-16T05:50:48.201Z,16.23
2022-11-16T05:53:40.099Z,16.10
2022-11-16T05:56:25.725Z,15.43
2022-11-16T05:59:16.497Z,15.88
2022-11-16T06:02:03.893Z,15.38
2022-11-16T06:04:50.316Z,14.77
2022-11-16T06:07:35.792Z,15.47
2022-11-16T06:10:21.280Z,14.80
2022-11-16T06:13:08.456Z,14.85
2022-11-16T06:15:53.922Z,14.93
2022-11-16T06:18:40.516Z,15.07
2022-11-16T06:21:26.737Z,14.40
2022-11-16T06:24:12.665Z,14.43
2022-11-16T06:26:57.523Z,14.57
2022-11-16T06:29:42.948Z,14.23
2022-11-16T06:32:28.176Z,14.60
2022-11-16T06:35:13.502Z,14.30
2022-11-16T06:37:58.654Z,14.55
2022-11-16T06:40:51.921Z,13.65
2022-11-16T06:43:37.639Z,13.80
2022-11-16T06:46:24.610Z,13.95
2022-11-16T06:49:11.207Z,13.93
2022-11-16T06:51:56.919Z,18.10
2022-11-16T06:54:42.378Z,18.60
2022-11-16T06:57:27.751Z,18.05
2022-11-16T07:00:13.771Z,18.98
2022-11-16T07:02:59.323Z,17.13
2022-11-16T07:05:44.911Z,16.83
2022-11-16T07:08:34.199Z,17.52
2022-11-16T07:11:20.349Z,15.93
2022-11-16T07:14:05.851Z,14.73
2022-11-16T07:16:56.313Z,15.27
2022-11-16T07:19:44.506Z,13.90
2022-11-16T07:22:29.778Z,14.43
2022-11-16T07:25:15.222Z,14.25
2022-11-16T07:28:00.485Z,14.13
2022-11-16T07:30:46.809Z,14.60
2022-11-16T07:33:38.649Z,13.73
2022-11-16T07:36:24.863Z,13.95
2022-11-16T07:39:12.309Z,13.93
2022-11-16T07:41:58.166Z,13.27
2022-11-16T07:45:01.758Z,12.83
2022-11-16T07:47:47.958Z,12.82
2022-11-16T07:50:40.879Z,13.45
2022-11-16T07:53:25.971Z,13.50
2022-11-16T07:56:11.931Z,12.57
2022-11-16T07:58:59.160Z,12.43
2022-11-16T08:01:46.655Z,12.75
2022-11-16T08:04:31.949Z,12.57
2022-11-16T08:07:17.798Z,12.35
2022-11-16T08:10:09.604Z,12.00
2022-11-16T08:12:55.263Z,11.37
2022-11-16T08:15:42.872Z,11.98
2022-11-16T08:18:28.865Z,10.75
2022-11-16T08:21:15.402Z,11.10
2022-11-16T08:24:01.721Z,11.55
2022-11-16T08:26:48.891Z,11.33
2022-11-16T08:29:35.179Z,10.65
2022-11-16T08:32:23.242Z,11.43
2022-11-16T08:35:09.121Z,10.68
2022-11-16T08:37:54.178Z,11.27
2022-11-16T08:40:39.625Z,10.70
2022-11-16T08:43:25.056Z,11.32
2022-11-16T08:46:11.537Z,11.85
2022-11-16T08:48:58.529Z,10.52
2022-11-16T08:51:43.989Z,11.23
2022-11-16T08:54:29.405Z,11.30
2022-11-16T08:57:14.708Z,10.05
2022-11-16T09:00:01.797Z,11.60
2022-11-16T09:02:46.877Z,10.50
2022-11-16T09:05:32.158Z,10.70
2022-11-16T09:08:17.095Z,10.00
2022-11-16T09:11:09.333Z,10.60
2022-11-16T09:13:55.437Z,10.88
2022-11-16T09:16:40.536Z,11.07
2022-11-16T09:19:25.537Z,10.57
2022-11-16T09:22:10.982Z,10.60
2022-11-16T09:24:55.797Z,10.68
2022-11-16T09:27:40.572Z,10.80
2022-11-16T09:30:25.476Z,10.50
2022-11-16T09:33:10.619Z,10.75
2022-11-16T09:35:56.563Z,10.47
2022-11-16T09:42:02.822Z,9.73
2022-11-16T09:44:57.471Z,9.90
2022-11-16T09:47:49.172Z,10.55
2022-11-16T09:50:34.526Z,9.70
2022-11-16T09:53:46.316Z,10.13
2022-11-16T09:56:35.209Z,9.77
2022-11-16T09:59:49.663Z,10.50
2022-11-16T10:02:37.146Z,10.10
2022-11-16T10:05:22.297Z,9.80
2022-11-16T10:08:17.330Z,10.68
2022-11-16T10:11:14.553Z,9.80
2022-11-16T10:14:05.228Z,9.63
2022-11-16T10:16:53.079Z,9.85
2022-11-16T10:19:45.263Z,9.70
2022-11-16T10:22:33.595Z,9.98
2022-11-16T10:25:23.840Z,9.63
2022-11-16T10:28:48.033Z,10.25
2022-11-16T10:31:39.170Z,9.23
2022-11-16T10:34:34.558Z,9.77
2022-11-16T10:37:20.394Z,8.90
2022-11-16T10:40:17.933Z,9.80
2022-11-16T10:43:12.202Z,9.65
2022-11-16T10:46:16.639Z,9.23
2022-11-16T10:49:08.677Z,8.70
2022-11-16T10:51:53.804Z,9.38
2022-11-16T10:54:44.034Z,9.73
2022-11-16T10:57:49.607Z,10.00
2022-11-16T11:00:39.603Z,9.25
2022-11-16T11:03:31.794Z,9.00
2022-11-16T11:06:17.290Z,9.10
2022-11-16T11:09:34.850Z,9.68
2022-11-16T11:12:39.119Z,9.10
2022-11-16T11:15:26.880Z,8.80
2022-11-16T11:18:15.472Z,9.07
2022-11-16T11:21:06.664Z,9.10
2022-11-16T11:23:52.884Z,8.93
2022-11-16T11:26:40.761Z,8.75
2022-11-16T11:29:33.136Z,9.15
2022-11-16T11:32:23.919Z,8.70
2022-11-16T11:35:21.680Z,8.52
2022-11-16T11:38:08.231Z,8.77
2022-11-16T11:40:58.515Z,8.50
2022-11-16T11:43:43.410Z,8.77
2022-11-16T11:46:56.026Z,7.93
2022-11-16T11:49:38.472Z,8.13
2022-11-16T11:52:31.639Z,8.68
2022-11-16T11:55:17.810Z,8.55
2022-11-16T11:58:04.359Z,8.25
2022-11-16T12:00:58.689Z,7.93
2022-11-16T12:03:56.011Z,8.02
2022-11-16T12:06:46.923Z,8.30
2022-11-16T12:09:58.084Z,8.30
2022-11-16T12:12:51.868Z,8.38
2022-11-16T12:16:09.654Z,7.53
2022-11-16T12:18:54.913Z,8.02
2022-11-16T12:21:43.167Z,7.68
2022-11-16T12:24:46.805Z,7.97
2022-11-16T12:27:41.062Z,7.88
2022-11-16T12:30:26.203Z,7.53
2022-11-16T12:33:10.953Z,8.07
2022-11-16T12:36:07.626Z,8.35
2022-11-16T12:38:58.563Z,7.45
2022-11-16T12:41:55.872Z,7.93
2022-11-16T12:44:41.357Z,7.90
2022-11-16T12:47:48.746Z,8.13
2022-11-16T12:50:52.451Z,7.95
2022-11-16T12:53:56.210Z,7.70
2022-11-16T12:56:49.548Z,7.68
2022-11-16T12:59:45.457Z,7.00
2022-11-16T13:02:46.653Z,7.72
2022-11-16T13:05:31.714Z,7.72
2022-11-16T13:08:35.858Z,7.40
2022-11-16T13:11:23.663Z,7.50
2022-11-16T13:14:13.219Z,7.03
2022-11-16T13:17:00.640Z,8.15
2022-11-16T13:19:47.457Z,6.78
2022-11-16T13:22:34.267Z,7.70
2022-11-16T13:25:24.469Z,7.22
2022-11-16T13:28:17.440Z,6.73
2022-11-16T13:31:11.320Z,7.15
2022-11-16T13:33:59.748Z,6.97
2022-11-16T13:36:46.171Z,6.78
2022-11-16T13:39:50.378Z,7.70
2022-11-16T13:42:38.749Z,7.00
2022-11-16T13:45:23.729Z,6.50
2022-11-16T13:48:19.796Z,7.63
2022-11-16T13:51:07.186Z,6.90
2022-11-16T13:56:58.781Z,6.57
2022-11-16T13:59:43.714Z,6.88
2022-11-16T14:02:30.110Z,6.70
2022-11-16T14:05:35.379Z,7.22
2022-11-16T14:08:20.565Z,6.70
2022-11-16T14:11:25.597Z,6.47
2022-11-16T14:14:11.481Z,6.93
2022-11-16T14:16:56.866Z,6.60
2022-11-16T14:19:47.400Z,6.88
2022-11-16T14:22:46.701Z,6.57
2022-11-16T14:25:45.265Z,6.90
2022-11-16T14:28:38.150Z,6.68
2022-11-16T14:31:27.091Z,6.95
2022-11-16T14:34:16.960Z,6.72
2022-11-16T14:37:03.235Z,6.72
2022-11-16T14:39:49.525Z,6.30
2022-11-16T14:43:01.860Z,6.10
2022-11-16T14:46:02.038Z,6.85
2022-11-16T14:48:47.763Z,6.10
2022-11-16T14:51:35.325Z,6.65
2022-11-16T14:54:42.563Z,6.67
2022-11-16T14:57:28.520Z,6.18
2022-11-16T15:00:20.900Z,6.15
2022-11-16T15:03:06.207Z,6.60
2022-11-16T15:05:51.721Z,6.18
2022-11-16T15:08:44.470Z,6.20
2022-11-16T15:12:07.325Z,6.07
2022-11-16T15:14:53.786Z,5.72
2022-11-16T15:17:39.743Z,6.20
2022-11-16T15:20:26.231Z,6.05
2022-11-16T15:23:15.082Z,6.37
2022-11-16T15:26:02.301Z,5.90
2022-11-16T15:28:50.120Z,5.95
2022-11-16T15:31:36.336Z,6.00
2022-11-16T15:34:21.450Z,6.13
2022-11-16T15:37:10.318Z,5.37
2022-11-16T15:39:56.866Z,6.10
2022-11-16T15:42:42.402Z,6.10
2022-11-16T15:45:29.351Z,5.78
2022-11-16T15:48:33.349Z,5.90
2022-11-16T15:51:23.212Z,5.90
2022-11-16T15:54:15.675Z,5.63
2022-11-16T15:57:08.220Z,5.88
2022-11-16T15:59:54.737Z,5.45
2022-11-16T16:02:43.634Z,5.40
2022-11-16T16:05:34.728Z,5.50
2022-11-16T16:08:26.546Z,5.15
2022-11-16T16:11:21.369Z,5.57
2022-11-16T16:14:10.877Z,5.07
2022-11-16T16:16:59.616Z,5.47
2022-11-16T16:19:45.639Z,5.33
2022-11-16T16:22:32.617Z,5.13
2022-11-16T16:25:28.802Z,5.30
2022-11-16T16:28:14.025Z,5.22
2022-11-16T16:30:58.999Z,5.20
2022-11-16T16:33:43.955Z,5.10
2022-11-16T16:36:28.753Z,5.13
2022-11-16T16:39:13.530Z,5.15
2022-11-16T16:41:58.508Z,5.53
2022-11-16T16:44:44.185Z,5.45
2022-11-16T16:47:29.671Z,5.40
2022-11-16T16:50:14.609Z,5.40
2022-11-16T16:52:59.443Z,5.25
2022-11-16T16:55:47.094Z,5.35
2022-11-16T16:58:32.267Z,5.05
2022-11-16T17:01:17.860Z,5.33
2022-11-16T17:04:03.308Z,5.65
2022-11-16T17:06:50.487Z,5.03
2022-11-16T17:09:35.778Z,5.38
2022-11-16T17:12:21.187Z,4.70
2022-11-16T17:15:06.768Z,5.07
2022-11-16T17:17:52.918Z,5.15
2022-11-16T17:20:41.343Z,5.05
2022-11-16T17:23:29.344Z,5.07
2022-11-16T17:26:14.246Z,5.03
2022-11-16T17:28:59.196Z,4.97
2022-11-16T17:31:46.347Z,5.32
2022-11-16T17:34:31.532Z,5.32
2022-11-16T17:37:16.584Z,5.10
2022-11-16T17:40:01.474Z,4.78
2022-11-16T17:42:46.199Z,4.50
2022-11-16T17:45:31.214Z,4.47
2022-11-16T17:48:16.656Z,4.75
2022-11-16T17:51:01.989Z,4.88
2022-11-16T17:53:47.212Z,5.50
2022-11-16T17:56:32.324Z,5.13
2022-11-16T17:59:17.854Z,5.20
2022-11-16T18:02:03.007Z,4.90
2022-11-16T18:04:51.082Z,5.18
2022-11-16T18:07:38.434Z,5.90
2022-11-16T18:10:24.212Z,5.60
2022-11-16T18:13:09.224Z,5.55
2022-11-16T18:15:54.170Z,5.80
2022-11-16T18:18:40.294Z,5.70
2022-11-16T18:21:25.939Z,5.90
2022-11-16T18:24:11.438Z,5.90
2022-11-16T18:26:56.591Z,6.15
2022-11-16T18:29:41.486Z,7.10
2022-11-16T18:32:26.331Z,6.20
2022-11-16T18:35:11.349Z,6.03
2022-11-16T18:37:56.109Z,6.57
2022-11-16T18:40:41.230Z,6.15
2022-11-16T18:43:26.160Z,6.55
2022-11-16T18:46:11.005Z,6.40
2022-11-16T18:48:56.210Z,7.03
2022-11-16T18:51:41.070Z,7.80
2022-11-16T18:54:25.919Z,17.75
2022-11-16T18:57:11.320Z,23.45
2022-11-16T18:59:56.971Z,35.22
2022-11-16T19:02:42.297Z,34.95
2022-11-16T19:05:27.148Z,31.63
2022-11-16T19:08:12.154Z,32.22
2022-11-16T19:11:02.795Z,30.63
2022-11-16T19:13:51.484Z,29.92
2022-11-16T19:16:36.819Z,31.42
2022-11-16T19:19:22.070Z,32.20
2022-11-16T19:22:07.218Z,32.97
2022-11-16T19:24:53.162Z,33.17
2022-11-16T19:27:38.612Z,34.25
2022-11-16T19:30:23.859Z,35.17
2022-11-16T19:33:09.070Z,34.70
2022-11-16T19:35:53.973Z,33.97
2022-11-16T19:38:39.413Z,34.28
2022-11-16T19:41:25.867Z,33.65
2022-11-16T19:44:11.460Z,33.30
2022-11-16T19:46:57.396Z,33.70
2022-11-16T19:49:42.552Z,33.05
2022-11-16T19:52:27.281Z,33.67
2022-11-16T19:55:12.252Z,31.40
2022-11-16T19:57:57.070Z,32.78
2022-11-16T20:00:42.027Z,32.30
2022-11-16T20:03:27.640Z,30.83
2022-11-16T20:06:13.046Z,30.75
2022-11-16T20:09:00.897Z,30.77
2022-11-16T20:11:46.304Z,31.52
2022-11-16T20:14:31.648Z,30.43
2022-11-16T20:17:17.171Z,29.17
2022-11-16T20:20:02.013Z,28.95
2022-11-16T20:22:47.603Z,29.20
2022-11-16T20:25:32.769Z,29.40
2022-11-16T20:28:17.645Z,27.70
2022-11-16T20:31:05.400Z,27.48
2022-11-16T20:34:00.357Z,27.80
2022-11-16T20:36:46.091Z,28.10
2022-11-16T20:39:30.932Z,28.60
2022-11-16T20:42:15.833Z,27.33
2022-11-16T20:45:00.890Z,27.38
2022-11-16T20:47:45.881Z,26.85
2022-11-16T20:50:31.254Z,27.50
2022-11-16T20:53:16.175Z,27.60
2022-11-16T20:56:02.643Z,27.60
2022-11-16T20:58:48.453Z,26.77
2022-11-16T21:01:33.807Z,27.60
2022-11-16T21:04:20.741Z,26.95
2022-11-16T21:07:06.254Z,25.85
2022-11-16T21:10:10.315Z,25.40
2022-11-16T21:13:14.372Z,25.95
2022-11-16T21:16:12.997Z,26.83
2022-11-16T21:18:58.616Z,23.92
2022-11-16T21:21:44.734Z,25.55
2022-11-16T21:24:32.177Z,24.63
2022-11-16T21:27:17.611Z,25.50
2022-11-16T21:30:02.989Z,23.35
2022-11-16T21:32:48.839Z,24.83
2022-11-16T21:35:33.958Z,23.45
2022-11-16T21:38:20.383Z,22.57
2022-11-16T21:41:06.353Z,24.25
2022-11-16T21:43:52.093Z,24.05
2022-11-16T21:46:37.068Z,22.27
2022-11-16T21:49:22.260Z,22.52
2022-11-16T21:52:07.908Z,22.40
2022-11-16T21:54:59.501Z,21.63
2022-11-16T21:57:44.654Z,21.75
2022-11-16T22:00:30.085Z,21.98
2022-11-16T22:03:15.806Z,21.30
2022-11-16T22:06:20.823Z,21.30
2022-11-16T22:09:05.756Z,21.48
2022-11-16T22:11:50.732Z,20.67
2022-11-16T22:14:35.789Z,19.98
2022-11-16T22:17:21.726Z,21.15
2022-11-16T22:20:07.217Z,20.20
2022-11-16T22:22:52.532Z,20.27
2022-11-16T22:25:38.060Z,19.88
2022-11-16T22:28:23.058Z,19.70
2022-11-16T22:31:12.541Z,19.30
2022-11-16T22:33:57.909Z,18.83
2022-11-16T22:36:42.741Z,18.23
2022-11-16T22:39:28.476Z,18.13
2022-11-16T22:42:13.611Z,17.50
2022-11-16T22:44:59.267Z,17.10
2022-11-16T22:47:44.949Z,17.77
2022-11-16T22:50:30.295Z,18.27
2022-11-16T22:53:15.710Z,16.92
2022-11-16T22:56:04.773Z,16.63
2022-11-16T22:58:50.527Z,17.10
2022-11-16T23:01:37.096Z,16.97
2022-11-16T23:04:22.211Z,17.00
2022-11-16T23:07:07.576Z,16.50
2022-11-16T23:09:52.937Z,15.52
2022-11-16T23:12:56.646Z,15.68
2022-11-16T23:47:07.239Z,13.80
2022-11-16T23:49:52.824Z,14.27
2022-11-16T23:52:38.084Z,14.27
2022-11-16T23:55:23.652Z,14.40
2022-11-16T23:58:13.677Z,13.55
